Home > Products > Valid Products > TAF

000
FTUS44 KBMX 101723
TAFANB
TAF
KANB 101723Z 1018/1118 29012G20KT P6SM SKC
     FM110000 VRB03KT P6SM SCT080=



000
FTUS44 KBMX 101723
TAFMGM
TAF
KMGM 101723Z 1018/1118 29013G20KT P6SM SKC
     FM110000 23003KT P6SM SKC
     FM111500 22007KT P6SM SKC=



000
FTUS44 KBMX 101723
TAFBHM
TAF
KBHM 101723Z 1018/1118 29011G20KT P6SM SKC
     FM110100 24005KT P6SM SCT080=



000
FTUS44 KBMX 101723
TAFTOI
TAF
KTOI 101723Z 1018/1118 29013G20KT P6SM SKC
     FM110000 23003KT P6SM SKC
     FM111500 22008KT P6SM SKC=



000
FTUS44 KBMX 101723
TAFTCL
TAF
KTCL 101723Z 1018/1118 29011G18KT P6SM SKC
     FM110000 19003KT P6SM SKC=



000
FTUS44 KBMX 101723
TAFEET
TAF
KEET 101723Z 1018/1118 29010G18KT P6SM SKC
     FM110000 24003KT P6SM SKC=



000
FTUS44 KBMX 101120
TAFTOI
TAF
KTOI 101120Z 1012/1112 31004KT P6SM SKC
     FM101500 30011G17KT P6SM SKC
     FM110000 30003KT P6SM SKC=



000
FTUS44 KBMX 101120
TAFTCL
TAF
KTCL 101120Z 1012/1112 31007KT P6SM SKC
     FM101500 29010G17KT P6SM SKC
     FM110000 22003KT P6SM SKC=



000
FTUS44 KBMX 101120
TAFMGM
TAF
KMGM 101120Z 1012/1112 29007KT P6SM SKC
     FM101500 29010G17KT P6SM SKC
     FM110000 26003KT P6SM SKC=



000
FTUS44 KBMX 101120
TAFEET
TAF
KEET 101120Z 1012/1112 28006KT P6SM SKC
     FM101500 29010G18KT P6SM SKC
     FM110000 23004KT P6SM SKC=



000
FTUS44 KBMX 101120
TAFANB
TAF
KANB 101120Z 1012/1112 27005KT P6SM FEW070
     FM101500 29011G18KT P6SM SKC
     FM110000 27003KT P6SM SKC=



000
FTUS44 KBMX 101120
TAFBHM
TAF
KBHM 101120Z 1012/1112 30007KT P6SM FEW060
     FM101500 29011G18KT P6SM SKC
     FM110000 25006KT P6SM SKC=



000
FTUS44 KBMX 100524
TAFMGM
TAF
KMGM 100524Z 1006/1106 30007KT P6SM SKC
     FM101500 29010G17KT P6SM SKC
     FM110000 26003KT P6SM SKC=



000
FTUS44 KBMX 100524
TAFTCL
TAF
KTCL 100524Z 1006/1106 34007KT P6SM SKC
     FM101500 29010G17KT P6SM SKC
     FM110000 22003KT P6SM SKC=



000
FTUS44 KBMX 100524
TAFANB
TAF
KANB 100524Z 1006/1106 29005KT P6SM FEW070
     FM101500 29011G18KT P6SM SKC
     FM110000 27003KT P6SM SKC=



000
FTUS44 KBMX 100524
TAFTOI
TAF
KTOI 100524Z 1006/1106 31004KT P6SM SKC
     FM101500 30011G17KT P6SM SKC
     FM110000 30003KT P6SM SKC=



000
FTUS44 KBMX 100524
TAFBHM
TAF
KBHM 100524Z 1006/1106 33007KT P6SM FEW060
     FM101500 29011G18KT P6SM SKC
     FM110000 25006KT P6SM SKC=



000
FTUS44 KBMX 100524
TAFEET
TAF
KEET 100524Z 1006/1106 32007KT P6SM SKC
     FM101500 29010G18KT P6SM SKC
     FM110000 23004KT P6SM SKC=



000
FTUS44 KBMX 092324
TAFTOI
TAF
KTOI 092324Z 1000/1024 30010G17KT P6SM SKC
     FM100200 30007KT P6SM SKC
     FM101500 30011G18KT P6SM SKC=



000
FTUS44 KBMX 092324
TAFEET
TAF
KEET 092324Z 1000/1024 30010G17KT P6SM BKN060
     FM100100 30006KT P6SM SCT060
     FM101500 29010G18KT P6SM SKC=



000
FTUS44 KBMX 092324
TAFTOI
TAF
KTOI 092324Z 1000/1024 30010G17KT P6SM SKC
     FM100200 30007KT P6SM SKC
     FM101500 30011G18KT P6SM SKC=



000
FTUS44 KBMX 092324
TAFBHM
TAF
KBHM 092324Z 1000/1024 30012G18KT P6SM BKN060
     FM100200 30007KT P6SM SCT050
     FM101500 29011G18KT P6SM SKC=



000
FTUS44 KBMX 092324
TAFANB
TAF
KANB 092324Z 1000/1024 30010KT P6SM OVC050
     FM100400 27007KT P6SM SCT050
     FM101500 29011G18KT P6SM SKC=



000
FTUS44 KBMX 092324
TAFTCL
TAF
KTCL 092324Z 1000/1024 30010G17KT P6SM SCT070
     FM100200 33006KT P6SM SCT050
     FM101500 29010G18KT P6SM SKC=



000
FTUS44 KBMX 092324
TAFBHM
TAF
KBHM 092324Z 1000/1024 30012G18KT P6SM BKN060
     FM100200 30007KT P6SM SCT050
     FM101500 29011G18KT P6SM SKC=



000
FTUS44 KBMX 092324
TAFMGM
TAF
KMGM 092324Z 1000/1024 29010G17KT P6SM SCT080
     FM100200 28008KT P6SM FEW080
     FM101500 29012G18KT P6SM SKC=



000
FTUS44 KBMX 092324
TAFMGM
TAF
KMGM 092324Z 1000/1024 29010G17KT P6SM SCT080
     FM100200 28008KT P6SM FEW080
     FM101500 29012G18KT P6SM SKC=



000
FTUS44 KBMX 092324
TAFANB
TAF
KANB 092324Z 1000/1024 30010KT P6SM OVC050
     FM100400 27007KT P6SM SCT050
     FM101500 29011G18KT P6SM SKC=



000
FTUS44 KBMX 092324
TAFTCL
TAF
KTCL 092324Z 1000/1024 30010G17KT P6SM SCT070
     FM100200 33006KT P6SM SCT050
     FM101500 29010G18KT P6SM SKC=



000
FTUS44 KBMX 092324
TAFEET
TAF
KEET 092324Z 1000/1024 30010G17KT P6SM BKN060
     FM100100 30006KT P6SM SCT060
     FM101500 29010G18KT P6SM SKC=



000
FTUS44 KBMX 091922 AAA
TAFEET
TAF AMD
KEET 091922Z 0919/1018 30012G20KT P6SM BKN050
     FM100100 30006KT P6SM SCT050
     FM101500 29010G18KT P6SM SKC=



000
FTUS44 KBMX 091922 AAA
TAFEET
TAF AMD
KEET 091922Z 0919/1018 30012G20KT P6SM BKN050
     FM100100 30006KT P6SM SCT050
     FM101500 29010G18KT P6SM SKC=



000
FTUS44 KBMX 091921 AAA
TAFBHM
TAF AMD
KBHM 091921Z 0919/1018 30014G25KT P6SM BKN050
     FM100200 30007KT P6SM SCT050
     FM101500 29011G18KT P6SM SKC=



000
FTUS44 KBMX 091921 AAA
TAFBHM
TAF AMD
KBHM 091921Z 0919/1018 30014G25KT P6SM BKN050
     FM100200 30007KT P6SM SCT050
     FM101500 29011G18KT P6SM SKC=



000
FTUS44 KBMX 091720
TAFTOI
TAF
KTOI 091720Z 0918/1018 28014G24KT P6SM SCT050
     FM100200 28007KT P6SM SKC
     FM101500 29012G18KT P6SM SKC=



000
FTUS44 KBMX 091720
TAFTOI
TAF
KTOI 091720Z 0918/1018 28014G24KT P6SM SCT050
     FM100200 28007KT P6SM SKC
     FM101500 29012G18KT P6SM SKC=



000
FTUS44 KBMX 091720
TAFBHM
TAF
KBHM 091720Z 0918/1018 28014G25KT P6SM -SHSN SCT035 OVC050
     FM100200 30007KT P6SM SCT050
     FM101500 29011G18KT P6SM SKC=



000
FTUS44 KBMX 091720
TAFANB
TAF
KANB 091720Z 0918/1018 27014G25KT 6SM -SHSN BR SCT035 OVC050
     FM100100 28009KT P6SM BKN050
     FM100400 27007KT P6SM SCT050
     FM101500 29011G18KT P6SM SKC=



000
FTUS44 KBMX 091720
TAFBHM
TAF
KBHM 091720Z 0918/1018 28014G25KT P6SM -SHSN SCT035 OVC050
     FM100200 30007KT P6SM SCT050
     FM101500 29011G18KT P6SM SKC=



000
FTUS44 KBMX 091720
TAFANB
TAF
KANB 091720Z 0918/1018 27014G25KT 6SM -SHSN BR SCT035 OVC050
     FM100100 28009KT P6SM BKN050
     FM100400 27007KT P6SM SCT050
     FM101500 29011G18KT P6SM SKC=



000
FTUS44 KBMX 091720
TAFMGM
TAF
KMGM 091720Z 0918/1018 28015G25KT P6SM BKN050
     FM100200 28008KT P6SM FEW050
     FM101500 29012G18KT P6SM SKC=



000
FTUS44 KBMX 091720
TAFMGM
TAF
KMGM 091720Z 0918/1018 28015G25KT P6SM BKN050
     FM100200 28008KT P6SM FEW050
     FM101500 29012G18KT P6SM SKC=



000
FTUS44 KBMX 091720
TAFEET
TAF
KEET 091720Z 0918/1018 29012G20KT P6SM -SHSN SCT035 OVC050
     FM100100 30006KT P6SM SCT050
     FM101500 29010G18KT P6SM SKC=



000
FTUS44 KBMX 091720
TAFEET
TAF
KEET 091720Z 0918/1018 29012G20KT P6SM -SHSN SCT035 OVC050
     FM100100 30006KT P6SM SCT050
     FM101500 29010G18KT P6SM SKC=



000
FTUS44 KBMX 091720
TAFTCL
TAF
KTCL 091720Z 0918/1018 29012G22KT P6SM BKN050
     FM100000 30007KT P6SM SCT050
     FM101500 29010G18KT P6SM SKC=



000
FTUS44 KBMX 091720
TAFTCL
TAF
KTCL 091720Z 0918/1018 29012G22KT P6SM BKN050
     FM100000 30007KT P6SM SCT050
     FM101500 29010G18KT P6SM SKC=



000
FTUS44 KBMX 091634 AAB
TAFBHM
TAF AMD
KBHM 091634Z 0917/1012 28013G22KT 6SM -SHSN BR SCT035 OVC050
     FM100000 30007KT P6SM OVC050
     FM100600 30005KT P6SM SCT050=



000
FTUS44 KBMX 091633 AAA
TAFANB
TAF AMD
KANB 091633Z 0917/1012 27013G22KT 6SM -SHSN BR SCT035 OVC050
     FM100300 30007KT P6SM OVC050
     FM100900 30005KT P6SM SCT050=



000
FTUS44 KBMX 091632 AAA
TAFEET
TAF AMD
KEET 091632Z 0917/1012 29011G17KT 5SM -SHSN SCT030 OVC050
     FM100000 30007KT P6SM OVC050
     FM100600 30005KT P6SM SCT050=



000
FTUS44 KBMX 091632 AAA
TAFEET
TAF AMD
KEET 091632Z 0917/1012 29011G17KT 5SM -SHSN SCT030 OVC050
     FM100000 30007KT P6SM OVC050
     FM100600 30005KT P6SM SCT050=



000
FTUS44 KBMX 091234 AAA
TAFBHM
TAF AMD
KBHM 091234Z 0913/1012 28010KT P6SM OVC050
      TEMPO 0913/0915 -SHSN SCT035 OVC040
     FM091500 29013G22KT P6SM OVC050
     FM100000 30007KT P6SM OVC050
     FM100600 30005KT P6SM SCT050=



000
FTUS44 KBMX 091131
TAFMGM
TAF
KMGM 091131Z 0912/1012 26010KT P6SM BKN050
     FM091500 29014G24KT P6SM BKN050
      TEMPO 0918/0922 29020G28KT
     FM100200 28009KT P6SM SCT050
     FM100600 26004KT P6SM SKC=



000
FTUS44 KBMX 091131
TAFANB
TAF
KANB 091131Z 0912/1012 28008KT P6SM OVC050
     FM091500 27011G18KT P6SM OVC050
     FM092100 27011G18KT 6SM -SHSN BR SCT035 OVC050
     FM100300 30007KT P6SM OVC050
     FM100900 30005KT P6SM SCT050=



000
FTUS44 KBMX 091131
TAFTOI
TAF
KTOI 091131Z 0912/1012 28008G14KT P6SM BKN050
     FM091500 29014G24KT P6SM BKN050
     FM100300 31006KT P6SM SKC=



000
FTUS44 KBMX 091131
TAFBHM
TAF
KBHM 091131Z 0912/1012 28010KT P6SM OVC050
     FM091500 29013G22KT P6SM OVC050
     FM100000 30007KT P6SM OVC050
     FM100600 30005KT P6SM SCT050=



000
FTUS44 KBMX 091131
TAFEET
TAF
KEET 091131Z 0912/1012 29006G14KT P6SM OVC050
     FM091500 30011G17KT P6SM OVC050
     FM100000 30007KT P6SM OVC050
     FM100600 30005KT P6SM SCT050=



000
FTUS44 KBMX 091131
TAFTCL
TAF
KTCL 091131Z 0912/1012 29009KT P6SM OVC050
     FM091500 29012G18KT P6SM OVC050
     FM100000 30007KT P6SM OVC050
     FM100400 30005KT P6SM SCT050=



000
FTUS44 KBMX 090523
TAFMGM
TAF
KMGM 090523Z 0906/1006 28008G14KT P6SM BKN050
     FM091500 29014G24KT P6SM BKN050
     FM100100 28009KT P6SM SKC=



000
FTUS44 KBMX 090523
TAFTOI
TAF
KTOI 090523Z 0906/1006 28008G14KT P6SM BKN050
     FM091500 29014G24KT P6SM BKN050
     FM100100 29006KT P6SM SKC=



000
FTUS44 KBMX 090523
TAFEET
TAF
KEET 090523Z 0906/1006 29006G14KT P6SM OVC050
     FM091500 30011G17KT P6SM OVC050
     FM100000 30007KT P6SM SKC=



000
FTUS44 KBMX 090523
TAFBHM
TAF
KBHM 090523Z 0906/1006 29010KT P6SM OVC050
     FM091500 29013G22KT P6SM OVC050
     FM100100 29009KT P6SM SKC=



000
FTUS44 KBMX 090523
TAFTCL
TAF
KTCL 090523Z 0906/1006 29009KT P6SM OVC050
     FM091500 29012G18KT P6SM OVC050
     FM100100 31007KT P6SM SKC=



000
FTUS44 KBMX 090523
TAFANB
TAF
KANB 090523Z 0906/1006 28008KT P6SM OVC050
     FM091500 27011G18KT P6SM OVC050
     FM100000 28009KT P6SM OVC100=



000
FTUS44 KBMX 082352
TAFBHM
TAF
KBHM 082352Z 0900/0924 30015G23KT P6SM FEW070 OVC080
     FM090100 29009G15KT P6SM OVC050
     FM091500 29013G22KT P6SM OVC050=



000
FTUS44 KBMX 082352
TAFEET
TAF
KEET 082352Z 0900/0924 30013G21KT P6SM BKN080 OVC090
     FM090100 29006G14KT P6SM OVC050
     FM091500 30011G17KT P6SM OVC050=



000
FTUS44 KBMX 082352
TAFANB
TAF
KANB 082352Z 0900/0924 29008G16KT P6SM OVC090
     FM090100 28008KT P6SM OVC050
     FM091500 27011G18KT P6SM OVC050=



000
FTUS44 KBMX 082352
TAFMGM
TAF
KMGM 082352Z 0900/0924 28014G21KT P6SM OVC100
     FM090100 28008G14KT P6SM BKN050
     FM091500 29014G24KT P6SM BKN050=



000
FTUS44 KBMX 082352
TAFTCL
TAF
KTCL 082352Z 0900/0924 30014G25KT P6SM OVC090
     FM090100 29009KT P6SM OVC050
     FM091500 29012G18KT P6SM OVC050=



000
FTUS44 KBMX 082352
TAFTOI
TAF
KTOI 082352Z 0900/0924 30011G17KT P6SM BKN100
     FM090100 28008G14KT P6SM BKN050
     FM091500 29014G24KT P6SM BKN050=



000
FTUS44 KBMX 082352
TAFBHM
TAF
KBHM 082352Z 0900/0924 30015G23KT P6SM FEW070 OVC080
     FM090100 29009G15KT P6SM OVC050
     FM091500 29013G22KT P6SM OVC050=



000
FTUS44 KBMX 082352
TAFTCL
TAF
KTCL 082352Z 0900/0924 30014G25KT P6SM OVC090
     FM090100 29009KT P6SM OVC050
     FM091500 29012G18KT P6SM OVC050=



000
FTUS44 KBMX 082352
TAFEET
TAF
KEET 082352Z 0900/0924 30013G21KT P6SM BKN080 OVC090
     FM090100 29006G14KT P6SM OVC050
     FM091500 30011G17KT P6SM OVC050=



000
FTUS44 KBMX 082352
TAFTOI
TAF
KTOI 082352Z 0900/0924 30011G17KT P6SM BKN100
     FM090100 28008G14KT P6SM BKN050
     FM091500 29014G24KT P6SM BKN050=



000
FTUS44 KBMX 082352
TAFMGM
TAF
KMGM 082352Z 0900/0924 28014G21KT P6SM OVC100
     FM090100 28008G14KT P6SM BKN050
     FM091500 29014G24KT P6SM BKN050=



000
FTUS44 KBMX 082352
TAFANB
TAF
KANB 082352Z 0900/0924 29008G16KT P6SM OVC090
     FM090100 28008KT P6SM OVC050
     FM091500 27011G18KT P6SM OVC050=



000
FTUS44 KBMX 081908 AAA
TAFANB
TAF AMD
KANB 081908Z 0819/0918 28013G23KT P6SM BKN050
     FM090100 29009KT P6SM -SHSN BKN035 OVC050
     FM091500 27012G20KT P6SM -SHSN BKN035 OVC050=



000
FTUS44 KBMX 081726
TAFANB
TAF
KANB 081726Z 0818/0918 26013G23KT P6SM BKN050
     FM090100 29009KT P6SM -SHSN BKN035 OVC050
     FM091500 27012G20KT P6SM -SHSN BKN035 OVC050=



000
FTUS44 KBMX 081726
TAFEET
TAF
KEET 081726Z 0818/0918 28013G23KT P6SM BKN050
     FM090100 29009KT P6SM -SHSN BKN035 OVC050
     FM091500 29012G20KT P6SM -SHSN BKN035 OVC050=



000
FTUS44 KBMX 081726
TAFBHM
TAF
KBHM 081726Z 0818/0918 28014G24KT P6SM BKN050
     FM090100 29009KT P6SM -SHSN BKN035 OVC050
     FM091500 29012G20KT P6SM -SHSN BKN035 OVC050=



000
FTUS44 KBMX 081726
TAFTOI
TAF
KTOI 081726Z 0818/0918 28013G23KT P6SM SCT050 BKN100
     FM090100 27009KT P6SM BKN050
     FM091500 29013G22KT P6SM BKN050=



000
FTUS44 KBMX 081726
TAFMGM
TAF
KMGM 081726Z 0818/0918 27013G23KT P6SM SCT050 BKN100
     FM090100 27009KT P6SM BKN050
     FM091500 29013G22KT P6SM BKN050=



000
FTUS44 KBMX 081726
TAFTCL
TAF
KTCL 081726Z 0818/0918 29014G24KT P6SM BKN050
     FM090100 29009KT P6SM -SHSN BKN035 OVC050
     FM091500 29012G20KT P6SM BKN035 OVC050=



000
FTUS44 KBMX 081726
TAFANB
TAF
KANB 081726Z 0818/0918 26013G23KT P6SM BKN050
     FM090100 29009KT P6SM -SHSN BKN035 OVC050
     FM091500 27012G20KT P6SM -SHSN BKN035 OVC050=



000
FTUS44 KBMX 081726
TAFMGM
TAF
KMGM 081726Z 0818/0918 27013G23KT P6SM SCT050 BKN100
     FM090100 27009KT P6SM BKN050
     FM091500 29013G22KT P6SM BKN050=



000
FTUS44 KBMX 081726
TAFTCL
TAF
KTCL 081726Z 0818/0918 29014G24KT P6SM BKN050
     FM090100 29009KT P6SM -SHSN BKN035 OVC050
     FM091500 29012G20KT P6SM BKN035 OVC050=



000
FTUS44 KBMX 081726
TAFBHM
TAF
KBHM 081726Z 0818/0918 28014G24KT P6SM BKN050
     FM090100 29009KT P6SM -SHSN BKN035 OVC050
     FM091500 29012G20KT P6SM -SHSN BKN035 OVC050=



000
FTUS44 KBMX 081726
TAFEET
TAF
KEET 081726Z 0818/0918 28013G23KT P6SM BKN050
     FM090100 29009KT P6SM -SHSN BKN035 OVC050
     FM091500 29012G20KT P6SM -SHSN BKN035 OVC050=



000
FTUS44 KBMX 081726
TAFTOI
TAF
KTOI 081726Z 0818/0918 28013G23KT P6SM SCT050 BKN100
     FM090100 27009KT P6SM BKN050
     FM091500 29013G22KT P6SM BKN050=



000
FTUS44 KBMX 081130
TAFEET
TAF
KEET 081130Z 0812/0912 25006KT P6SM BKN050 BKN130
     FM081600 28013G23KT P6SM BKN050
     FM090100 30009KT P6SM BKN035 OVC050=



000
FTUS44 KBMX 081130
TAFBHM
TAF
KBHM 081130Z 0812/0912 25006KT P6SM BKN050 BKN130
     FM081500 28013G23KT P6SM BKN050
     FM090100 30009KT P6SM BKN035 OVC050=



000
FTUS44 KBMX 081130
TAFTCL
TAF
KTCL 081130Z 0812/0912 25006KT P6SM BKN050 BKN130
     FM081500 28013G23KT P6SM BKN050
     FM090100 30009KT P6SM BKN035 OVC050=



000
FTUS44 KBMX 081130
TAFMGM
TAF
KMGM 081130Z 0812/0912 21005KT P6SM SKC
     FM081400 24006KT P6SM SCT030 BKN130
     FM081700 28013G23KT P6SM BKN050
     FM090100 27009KT P6SM BKN050=



000
FTUS44 KBMX 081130
TAFANB
TAF
KANB 081130Z 0812/0912 25006KT P6SM BKN050 BKN130
     FM081600 28013G23KT P6SM BKN050
     FM090100 30009KT P6SM BKN035 OVC050=



000
FTUS44 KBMX 081130
TAFTOI
TAF
KTOI 081130Z 0812/0912 00000KT P6SM SKC
     FM081500 24006KT P6SM SCT030 BKN130
     FM081700 28013G23KT P6SM BKN050
     FM090100 27009KT P6SM BKN050=



000
FTUS44 KBMX 080535
TAFTOI
TAF
KTOI 080535Z 0806/0906 00000KT P6SM SKC
     FM081300 24006KT P6SM SCT030 BKN130
     FM081700 28013G23KT P6SM BKN050
     FM090100 27009KT P6SM BKN050=



000
FTUS44 KBMX 080535
TAFTCL
TAF
KTCL 080535Z 0806/0906 24005KT P6SM SCT150
     FM081200 25006KT P6SM BKN050 BKN130
     FM081500 28013G23KT P6SM BKN050
     FM090100 30009KT P6SM BKN035=



000
FTUS44 KBMX 080535
TAFMGM
TAF
KMGM 080535Z 0806/0906 21005KT P6SM SKC
     FM081300 24006KT P6SM SCT030 BKN130
     FM081700 28013G23KT P6SM BKN050
     FM090100 27009KT P6SM BKN050=



000
FTUS44 KBMX 080535
TAFTOI
TAF
KTOI 080535Z 0806/0906 00000KT P6SM SKC
     FM081300 24006KT P6SM SCT030 BKN130
     FM081700 28013G23KT P6SM BKN050
     FM090100 27009KT P6SM BKN050=



000
FTUS44 KBMX 080535
TAFEET
TAF
KEET 080535Z 0806/0906 23004KT P6SM SCT150
     FM081300 25006KT P6SM BKN050 BKN130
     FM081600 28013G23KT P6SM BKN050
     FM090100 29009KT P6SM BKN035=



000
FTUS44 KBMX 080535
TAFANB
TAF
KANB 080535Z 0806/0906 23004KT P6SM SCT150
     FM081300 25006KT P6SM BKN050 BKN130
     FM081600 28013G23KT P6SM BKN050
     FM090100 29009KT P6SM BKN035=



000
FTUS44 KBMX 080535
TAFTCL
TAF
KTCL 080535Z 0806/0906 24005KT P6SM SCT150
     FM081200 25006KT P6SM BKN050 BKN130
     FM081500 28013G23KT P6SM BKN050
     FM090100 30009KT P6SM BKN035=



000
FTUS44 KBMX 080535
TAFBHM
TAF
KBHM 080535Z 0806/0906 24005KT P6SM SCT150
     FM081200 25006KT P6SM BKN050 BKN130
     FM081500 28013G23KT P6SM BKN050
     FM090100 30009KT P6SM BKN035=



000
FTUS44 KBMX 080535
TAFMGM
TAF
KMGM 080535Z 0806/0906 21005KT P6SM SKC
     FM081300 24006KT P6SM SCT030 BKN130
     FM081700 28013G23KT P6SM BKN050
     FM090100 27009KT P6SM BKN050=



000
FTUS44 KBMX 080535
TAFEET
TAF
KEET 080535Z 0806/0906 23004KT P6SM SCT150
     FM081300 25006KT P6SM BKN050 BKN130
     FM081600 28013G23KT P6SM BKN050
     FM090100 29009KT P6SM BKN035=



000
FTUS44 KBMX 080535
TAFBHM
TAF
KBHM 080535Z 0806/0906 24005KT P6SM SCT150
     FM081200 25006KT P6SM BKN050 BKN130
     FM081500 28013G23KT P6SM BKN050
     FM090100 30009KT P6SM BKN035=



000
FTUS44 KBMX 080535
TAFANB
TAF
KANB 080535Z 0806/0906 23004KT P6SM SCT150
     FM081300 25006KT P6SM BKN050 BKN130
     FM081600 28013G23KT P6SM BKN050
     FM090100 29009KT P6SM BKN035=



000
FTUS44 KBMX 072340
TAFEET
TAF
KEET 072340Z 0800/0824 29008KT P6SM SCT250
     FM080400 22005KT P6SM SCT150
     FM081100 25006KT P6SM BKN050 BKN130
     FM081500 29011G20KT P6SM BKN050=



000
FTUS44 KBMX 072340
TAFBHM
TAF
KBHM 072340Z 0800/0824 28008KT P6SM SCT250
     FM080400 24005KT P6SM SCT150
     FM081100 25006KT P6SM BKN050 BKN130
     FM081500 28013G23KT P6SM BKN050=



000
FTUS44 KBMX 072340
TAFTOI
TAF
KTOI 072340Z 0800/0824 29006KT P6SM SCT250
     FM080400 22005KT P6SM SCT150
     FM081300 25006KT P6SM BKN050 BKN130
     FM081700 28013G23KT P6SM BKN050=



000
FTUS44 KBMX 072340
TAFANB
TAF
KANB 072340Z 0800/0824 25006KT P6SM SCT250
     FM081200 23005KT P6SM BKN050 BKN150
     FM081600 26011G21KT P6SM BKN050=



000
FTUS44 KBMX 072340
TAFTCL
TAF
KTCL 072340Z 0800/0824 26007KT P6SM SCT250
     FM080400 22005KT P6SM SCT150
     FM081100 25006KT P6SM BKN050 BKN130
     FM081500 28013G23KT P6SM BKN050=



000
FTUS44 KBMX 072340
TAFMGM
TAF
KMGM 072340Z 0800/0824 28006KT P6SM SCT250
     FM080400 22005KT P6SM SCT150
     FM081300 25006KT P6SM BKN050 BKN130
     FM081700 28013G23KT P6SM BKN050=



000
FTUS44 KBMX 072340
TAFBHM
TAF
KBHM 072340Z 0800/0824 28008KT P6SM SCT250
     FM080400 24005KT P6SM SCT150
     FM081100 25006KT P6SM BKN050 BKN130
     FM081500 28013G23KT P6SM BKN050=



000
FTUS44 KBMX 072340
TAFTCL
TAF
KTCL 072340Z 0800/0824 26007KT P6SM SCT250
     FM080400 22005KT P6SM SCT150
     FM081100 25006KT P6SM BKN050 BKN130
     FM081500 28013G23KT P6SM BKN050=



000
FTUS44 KBMX 072340
TAFANB
TAF
KANB 072340Z 0800/0824 25006KT P6SM SCT250
     FM081200 23005KT P6SM BKN050 BKN150
     FM081600 26011G21KT P6SM BKN050=



000
FTUS44 KBMX 072340
TAFTOI
TAF
KTOI 072340Z 0800/0824 29006KT P6SM SCT250
     FM080400 22005KT P6SM SCT150
     FM081300 25006KT P6SM BKN050 BKN130
     FM081700 28013G23KT P6SM BKN050=



000
FTUS44 KBMX 072340
TAFMGM
TAF
KMGM 072340Z 0800/0824 28006KT P6SM SCT250
     FM080400 22005KT P6SM SCT150
     FM081300 25006KT P6SM BKN050 BKN130
     FM081700 28013G23KT P6SM BKN050=



000
FTUS44 KBMX 072340
TAFEET
TAF
KEET 072340Z 0800/0824 29008KT P6SM SCT250
     FM080400 22005KT P6SM SCT150
     FM081100 25006KT P6SM BKN050 BKN130
     FM081500 29011G20KT P6SM BKN050=



    US Dept of Commerce
    National Oceanic and Atmospheric Administration
    National Weather Service
    1325 East West Highway
    Silver Spring, MD 20910
    Page Author: NWS Internet Services Team
Disclaimer
Information Quality
Credits
Glossary
Privacy Policy
Freedom of Information Act (FOIA)
About Us
Career Opportunities